createdAt,value
2023-03-17T00:00:20.058Z,72.50
2023-03-17T00:02:47.971Z,72.53
2023-03-17T00:05:17.392Z,71.85
2023-03-17T00:07:45.299Z,73.10
2023-03-17T00:10:18.485Z,72.48
2023-03-17T00:12:46.356Z,73.09
2023-03-17T00:15:14.910Z,73.32
2023-03-17T00:17:43.353Z,73.05
2023-03-17T00:20:22.955Z,72.30
2023-03-17T00:22:51.100Z,72.89
2023-03-17T00:25:22.074Z,72.72
2023-03-17T00:27:50.253Z,72.43
2023-03-17T00:30:18.105Z,73.49
2023-03-17T00:32:46.677Z,71.77
2023-03-17T00:35:18.458Z,72.50
2023-03-17T00:37:46.755Z,72.85
2023-03-17T00:40:18.967Z,73.14
2023-03-17T00:42:47.975Z,72.50
2023-03-17T00:45:15.870Z,72.71
2023-03-17T00:47:43.601Z,72.61
2023-03-17T00:50:12.302Z,73.03
2023-03-17T00:52:40.641Z,72.07
2023-03-17T00:55:08.994Z,72.85
2023-03-17T00:57:36.716Z,73.96
2023-03-17T01:00:06.260Z,73.79
2023-03-17T01:02:33.800Z,73.52
2023-03-17T01:05:06.213Z,73.62
2023-03-17T01:07:35.082Z,73.34
2023-03-17T01:10:02.581Z,72.85
2023-03-17T01:12:30.154Z,73.12
2023-03-17T01:14:58.048Z,74.17
2023-03-17T01:17:26.905Z,71.17
2023-03-17T01:19:54.437Z,72.26
2023-03-17T01:22:21.910Z,73.23
2023-03-17T01:24:49.353Z,72.87
2023-03-17T01:27:17.529Z,72.38
2023-03-17T01:29:45.025Z,72.83
2023-03-17T01:32:12.902Z,73.03
2023-03-17T01:34:41.758Z,73.33
2023-03-17T01:37:09.637Z,71.57
2023-03-17T01:39:37.116Z,71.66
2023-03-17T01:42:05.800Z,72.36
2023-03-17T01:44:33.442Z,71.93
2023-03-17T01:47:01.658Z,72.69
2023-03-17T01:49:30.330Z,73.23
2023-03-17T01:52:01.009Z,73.38
2023-03-17T01:54:30.695Z,73.94
2023-03-17T01:56:58.577Z,72.82
2023-03-17T01:59:27.139Z,73.66
2023-03-17T02:01:56.605Z,73.66
2023-03-17T02:04:24.128Z,73.43
2023-03-17T02:06:57.917Z,73.38
2023-03-17T02:09:27.455Z,73.16
2023-03-17T02:11:55.594Z,73.10
2023-03-17T02:14:23.705Z,73.88
2023-03-17T02:16:51.306Z,73.88
2023-03-17T02:19:18.852Z,73.69
2023-03-17T02:21:48.056Z,73.94
2023-03-17T02:24:20.680Z,73.86
2023-03-17T02:26:48.853Z,73.26
2023-03-17T02:29:16.686Z,73.44
2023-03-17T02:31:45.350Z,73.43
2023-03-17T02:34:12.817Z,73.13
2023-03-17T02:36:40.663Z,73.31
2023-03-17T02:39:09.634Z,72.91
2023-03-17T02:41:37.273Z,72.16
2023-03-17T02:44:04.917Z,72.89
2023-03-17T02:46:32.613Z,73.93
2023-03-17T02:49:00.796Z,72.68
2023-03-17T02:51:28.347Z,73.40
2023-03-17T02:53:55.951Z,73.16
2023-03-17T02:56:25.146Z,72.40
2023-03-17T02:58:52.619Z,72.87
2023-03-17T03:01:21.171Z,72.98
2023-03-17T03:03:48.713Z,71.65
2023-03-17T03:06:16.842Z,73.10
2023-03-17T03:08:44.367Z,72.67
2023-03-17T03:11:12.109Z,72.49
2023-03-17T03:13:41.388Z,73.14
2023-03-17T03:16:09.127Z,73.37
2023-03-17T03:18:37.138Z,73.00
2023-03-17T03:21:04.868Z,73.16
2023-03-17T03:23:32.456Z,73.51
2023-03-17T03:25:59.925Z,73.67
2023-03-17T03:28:27.387Z,74.33
2023-03-17T03:30:56.245Z,73.43
2023-03-17T03:33:23.828Z,72.92
2023-03-17T03:35:51.400Z,73.72
2023-03-17T03:38:19.232Z,72.84
2023-03-17T03:40:46.819Z,72.46
2023-03-17T03:43:23.001Z,71.37
2023-03-17T03:45:51.802Z,73.05
2023-03-17T03:48:20.742Z,73.18
2023-03-17T03:50:48.256Z,73.05
2023-03-17T03:53:15.746Z,71.72
2023-03-17T03:55:43.315Z,73.07
2023-03-17T03:58:11.383Z,73.31
2023-03-17T04:00:38.877Z,73.17
2023-03-17T04:03:06.547Z,72.55
2023-03-17T04:05:35.418Z,73.08
2023-03-17T04:08:02.907Z,72.90
2023-03-17T04:10:31.887Z,73.11
2023-03-17T04:12:59.541Z,72.71
2023-03-17T04:15:27.166Z,73.84
2023-03-17T04:17:55.698Z,73.57
2023-03-17T04:20:23.332Z,73.32
2023-03-17T04:22:52.499Z,73.20
2023-03-17T04:25:20.095Z,72.99
2023-03-17T04:27:47.674Z,73.26
2023-03-17T04:30:16.804Z,73.07
2023-03-17T04:32:44.786Z,73.24
2023-03-17T04:35:13.331Z,72.93
2023-03-17T04:37:41.098Z,72.27
2023-03-17T04:40:10.952Z,72.87
2023-03-17T04:42:38.637Z,72.90
2023-03-17T04:45:06.694Z,72.29
2023-03-17T04:47:34.200Z,73.16
2023-03-17T04:50:01.891Z,71.99
2023-03-17T04:52:29.692Z,73.25
2023-03-17T04:54:57.198Z,73.42
2023-03-17T04:57:26.070Z,73.19
2023-03-17T04:59:53.620Z,73.15
2023-03-17T05:02:21.144Z,73.46
2023-03-17T05:04:48.850Z,73.21
2023-03-17T05:07:16.405Z,73.77
2023-03-17T05:09:43.952Z,73.29
2023-03-17T05:12:11.662Z,73.63
2023-03-17T05:14:40.530Z,73.17
2023-03-17T05:17:08.123Z,72.26
2023-03-17T05:19:35.571Z,73.57
2023-03-17T05:22:03.086Z,73.39
2023-03-17T05:24:30.572Z,73.46
2023-03-17T05:26:58.133Z,73.81
2023-03-17T05:29:25.615Z,72.47
2023-03-17T05:31:54.530Z,73.12
2023-03-17T05:34:22.041Z,72.41
2023-03-17T05:36:50.487Z,72.53
2023-03-17T05:39:18.049Z,72.71
2023-03-17T05:41:45.607Z,73.12
2023-03-17T05:44:13.465Z,72.83
2023-03-17T05:46:41.135Z,73.07
2023-03-17T05:49:10.101Z,73.16
2023-03-17T05:51:37.597Z,72.84
2023-03-17T05:54:05.093Z,73.07
2023-03-17T05:56:33.764Z,73.55
2023-03-17T05:59:01.799Z,73.14
2023-03-17T06:01:29.421Z,73.14
2023-03-17T06:03:56.921Z,73.27
2023-03-17T06:06:25.872Z,73.20
2023-03-17T06:08:53.434Z,73.37
2023-03-17T06:11:21.564Z,73.10
2023-03-17T06:13:49.193Z,73.10
2023-03-17T06:16:16.765Z,73.07
2023-03-17T06:18:44.567Z,72.58
2023-03-17T06:21:12.093Z,72.55
2023-03-17T06:23:40.994Z,72.82
2023-03-17T06:26:09.662Z,72.73
2023-03-17T06:28:37.163Z,72.39
2023-03-17T06:31:07.142Z,72.99
2023-03-17T06:33:35.315Z,72.30
2023-03-17T06:36:03.215Z,72.83
2023-03-17T06:38:30.731Z,72.14
2023-03-17T06:40:59.584Z,73.02
2023-03-17T06:43:27.472Z,72.97
2023-03-17T06:45:55.090Z,72.88
2023-03-17T06:48:23.447Z,72.91
2023-03-17T06:50:51.312Z,72.77
2023-03-17T06:53:18.820Z,72.61
2023-03-17T06:55:46.402Z,72.01
2023-03-17T06:58:15.889Z,72.20
2023-03-17T07:00:45.484Z,73.08
2023-03-17T07:03:13.044Z,72.63
2023-03-17T07:05:40.764Z,71.64
2023-03-17T07:08:08.714Z,71.60
2023-03-17T07:10:36.676Z,72.18
2023-03-17T07:13:06.014Z,72.56
2023-03-17T07:15:35.837Z,73.20
2023-03-17T07:18:03.482Z,73.18
2023-03-17T07:20:31.114Z,73.03
2023-03-17T07:22:58.984Z,73.35
2023-03-17T07:25:26.439Z,72.68
2023-03-17T07:27:54.071Z,73.00
2023-03-17T07:30:21.675Z,73.21
2023-03-17T07:32:50.552Z,73.12
2023-03-17T07:35:19.197Z,73.44
2023-03-17T07:37:47.309Z,72.63
2023-03-17T07:40:15.028Z,73.12
2023-03-17T07:42:42.614Z,72.53
2023-03-17T07:45:10.416Z,72.92
2023-03-17T07:47:37.932Z,72.87
2023-03-17T07:50:07.288Z,72.51
2023-03-17T07:52:35.335Z,72.56
2023-03-17T07:55:03.098Z,72.08
2023-03-17T07:57:30.650Z,72.48
2023-03-17T07:59:58.711Z,72.25
2023-03-17T08:02:26.359Z,72.46
2023-03-17T08:04:54.638Z,72.74
2023-03-17T08:07:23.549Z,71.99
2023-03-17T08:09:51.194Z,71.67
2023-03-17T08:12:18.800Z,71.66
2023-03-17T08:14:46.371Z,72.25
2023-03-17T08:17:13.906Z,71.77
2023-03-17T08:19:42.400Z,71.69
2023-03-17T08:22:09.908Z,72.21
2023-03-17T08:24:39.661Z,72.12
2023-03-17T08:27:07.886Z,72.13
2023-03-17T08:29:35.928Z,71.73
2023-03-17T08:32:03.609Z,71.38
2023-03-17T08:34:31.453Z,71.60
2023-03-17T08:36:58.946Z,71.88
2023-03-17T08:39:26.619Z,71.55
2023-03-17T08:41:55.671Z,72.11
2023-03-17T08:44:23.168Z,71.74
2023-03-17T08:46:51.405Z,71.74
2023-03-17T08:49:19.053Z,71.46
2023-03-17T08:51:46.544Z,70.53
2023-03-17T08:54:14.074Z,70.93
2023-03-17T08:56:41.900Z,71.44
2023-03-17T08:59:10.945Z,70.64
2023-03-17T09:01:39.913Z,67.67
2023-03-17T09:04:07.653Z,69.08
2023-03-17T09:06:35.146Z,70.79
2023-03-17T09:09:02.600Z,71.19
2023-03-17T09:11:31.530Z,70.54
2023-03-17T09:13:59.164Z,70.98
2023-03-17T09:16:28.695Z,71.17
2023-03-17T09:18:56.530Z,71.05
2023-03-17T09:21:24.048Z,70.64
2023-03-17T09:23:51.589Z,70.37
2023-03-17T09:26:20.081Z,70.92
2023-03-17T09:28:47.539Z,70.81
2023-03-17T09:31:15.207Z,70.28
2023-03-17T09:33:44.076Z,70.39
2023-03-17T09:36:12.042Z,70.14
2023-03-17T09:38:39.637Z,70.56
2023-03-17T09:41:13.006Z,70.47
2023-03-17T09:43:41.529Z,70.32
2023-03-17T09:46:11.248Z,70.26
2023-03-17T09:48:52.708Z,70.66
2023-03-17T09:51:20.434Z,70.64
2023-03-17T09:53:50.139Z,68.87
2023-03-17T09:56:17.861Z,70.08
2023-03-17T09:58:48.526Z,69.96
2023-03-17T10:01:17.705Z,69.49
2023-03-17T10:03:45.255Z,70.02
2023-03-17T10:06:32.206Z,70.08
2023-03-17T10:09:02.338Z,68.99
2023-03-17T10:11:33.390Z,68.59
2023-03-17T10:14:01.954Z,69.17
2023-03-17T10:16:32.196Z,68.84
2023-03-17T10:19:00.573Z,69.47
2023-03-17T10:21:28.492Z,69.25
2023-03-17T10:23:57.393Z,69.23
2023-03-17T10:26:28.679Z,69.30
2023-03-17T10:28:56.215Z,70.02
2023-03-17T10:31:28.114Z,67.14
2023-03-17T10:33:55.691Z,69.36
2023-03-17T10:36:34.679Z,68.85
2023-03-17T10:39:02.448Z,69.21
2023-03-17T10:41:31.307Z,67.72
2023-03-17T10:43:59.386Z,69.31
2023-03-17T10:46:29.871Z,66.82
2023-03-17T10:48:58.228Z,65.52
2023-03-17T10:51:30.653Z,68.15
2023-03-17T10:53:58.862Z,68.15
2023-03-17T10:56:27.518Z,68.80
2023-03-17T10:58:56.943Z,69.14
2023-03-17T11:01:27.046Z,68.98
2023-03-17T11:03:54.645Z,69.21
2023-03-17T11:06:27.012Z,69.46
2023-03-17T11:08:55.390Z,69.00
2023-03-17T11:11:24.087Z,69.22
2023-03-17T11:13:51.772Z,69.49
2023-03-17T11:16:23.092Z,68.65
2023-03-17T11:18:51.859Z,69.56
2023-03-17T11:21:19.946Z,69.64
2023-03-17T11:23:49.066Z,69.73
2023-03-17T11:26:22.951Z,68.10
2023-03-17T11:28:51.258Z,69.41
2023-03-17T11:31:23.116Z,69.35
2023-03-17T11:33:53.297Z,69.44
2023-03-17T11:36:25.017Z,68.32
2023-03-17T11:38:55.531Z,69.13
2023-03-17T11:41:35.716Z,68.44
2023-03-17T11:44:24.412Z,69.18
2023-03-17T11:46:53.494Z,69.42
2023-03-17T11:49:22.836Z,69.55
2023-03-17T11:51:53.484Z,69.06
2023-03-17T11:54:24.677Z,69.20
2023-03-17T11:56:52.749Z,68.97
2023-03-17T11:59:25.824Z,69.05
2023-03-17T12:01:56.934Z,67.86
2023-03-17T12:04:26.497Z,67.92
2023-03-17T12:06:57.724Z,69.55
2023-03-17T12:09:26.686Z,69.39
2023-03-17T12:11:54.217Z,69.25
2023-03-17T12:14:24.680Z,69.51
2023-03-17T12:16:53.490Z,68.78
2023-03-17T12:19:23.126Z,68.57
2023-03-17T12:21:52.502Z,69.36
2023-03-17T12:24:20.840Z,66.90
2023-03-17T12:26:50.693Z,68.80
2023-03-17T12:29:20.504Z,69.25
2023-03-17T12:31:49.470Z,67.66
2023-03-17T12:34:20.396Z,69.18
2023-03-17T12:36:49.830Z,67.35
2023-03-17T12:39:17.681Z,68.40
2023-03-17T12:41:56.846Z,67.24
2023-03-17T12:44:27.895Z,67.81
2023-03-17T12:47:10.404Z,68.22
2023-03-17T12:49:45.092Z,67.18
2023-03-17T12:52:16.791Z,67.81
2023-03-17T12:54:45.824Z,67.43
2023-03-17T12:57:14.452Z,63.86
2023-03-17T12:59:42.816Z,63.77
2023-03-17T13:02:15.382Z,66.11
2023-03-17T13:04:48.774Z,67.20
2023-03-17T13:07:18.190Z,63.79
2023-03-17T13:09:47.625Z,67.56
2023-03-17T13:12:33.702Z,65.68
2023-03-17T13:15:01.284Z,65.45
2023-03-17T13:17:32.733Z,66.25
2023-03-17T13:20:10.923Z,67.78
2023-03-17T13:22:40.266Z,65.40
2023-03-17T13:25:15.712Z,65.58
2023-03-17T13:27:44.403Z,67.91
2023-03-17T13:30:33.237Z,68.61
2023-03-17T13:33:04.063Z,67.13
2023-03-17T13:35:39.037Z,66.03
2023-03-17T13:38:21.713Z,67.48
2023-03-17T13:41:04.165Z,67.43
2023-03-17T13:43:46.517Z,68.39
2023-03-17T13:46:22.245Z,67.62
2023-03-17T13:48:49.957Z,68.90
2023-03-17T13:51:20.624Z,68.73
2023-03-17T13:53:49.008Z,67.09
2023-03-17T13:56:19.030Z,69.40
2023-03-17T13:59:13.493Z,68.64
2023-03-17T14:01:43.749Z,68.05
2023-03-17T14:04:17.972Z,67.88
2023-03-17T14:06:45.498Z,68.81
2023-03-17T14:09:18.486Z,62.15
2023-03-17T14:11:46.909Z,68.60
2023-03-17T14:14:31.651Z,68.76
2023-03-17T14:17:02.254Z,66.77
2023-03-17T14:19:31.124Z,66.72
2023-03-17T14:22:04.177Z,67.79
2023-03-17T14:24:32.260Z,69.62
2023-03-17T14:27:04.359Z,69.29
2023-03-17T14:29:32.137Z,67.78
2023-03-17T14:32:02.973Z,68.10
2023-03-17T14:34:30.511Z,68.67
2023-03-17T14:36:59.627Z,68.24
2023-03-17T14:39:27.090Z,69.15
2023-03-17T14:42:04.004Z,70.28
2023-03-17T14:44:38.042Z,69.87
2023-03-17T14:47:07.357Z,67.48
2023-03-17T14:49:34.889Z,67.11
2023-03-17T14:52:02.656Z,66.93
2023-03-17T14:54:31.587Z,67.44
2023-03-17T14:57:02.238Z,67.70
2023-03-17T14:59:30.937Z,69.46
2023-03-17T15:01:58.973Z,67.80
2023-03-17T15:04:28.301Z,67.29
2023-03-17T15:06:56.208Z,68.62
2023-03-17T15:09:26.215Z,67.81
2023-03-17T15:11:54.757Z,69.01
2023-03-17T15:14:23.066Z,69.31
2023-03-17T15:16:51.395Z,65.73
2023-03-17T15:19:20.430Z,69.48
2023-03-17T15:21:49.425Z,69.76
2023-03-17T15:24:24.786Z,69.19
2023-03-17T15:26:52.304Z,68.84
2023-03-17T15:29:19.805Z,69.50
2023-03-17T15:31:47.400Z,69.68
2023-03-17T15:34:15.345Z,70.16
2023-03-17T15:36:43.545Z,70.80
2023-03-17T15:39:12.725Z,69.92
2023-03-17T15:41:40.301Z,69.06
2023-03-17T15:44:07.815Z,69.75
2023-03-17T15:46:35.280Z,69.59
2023-03-17T15:49:02.747Z,70.38
2023-03-17T15:51:30.365Z,70.19
2023-03-17T15:53:57.870Z,69.85
2023-03-17T15:56:26.960Z,70.21
2023-03-17T15:58:54.465Z,70.13
2023-03-17T16:01:22.058Z,69.51
2023-03-17T16:03:49.589Z,69.64
2023-03-17T16:06:17.822Z,69.85
2023-03-17T16:08:45.420Z,70.76
2023-03-17T16:11:17.769Z,69.20
2023-03-17T16:13:46.792Z,69.90
2023-03-17T16:16:19.464Z,69.57
2023-03-17T16:18:47.609Z,70.12
2023-03-17T16:21:15.066Z,71.99
2023-03-17T16:23:42.623Z,70.36
2023-03-17T16:26:15.864Z,70.47
2023-03-17T16:28:44.535Z,70.39
2023-03-17T16:31:21.182Z,69.68
2023-03-17T16:33:48.778Z,70.21
2023-03-17T16:36:17.189Z,69.31
2023-03-17T16:38:44.784Z,68.86
2023-03-17T16:41:16.786Z,71.39
2023-03-17T16:43:44.616Z,70.72
2023-03-17T16:46:12.653Z,70.85
2023-03-17T16:48:41.534Z,70.02
2023-03-17T16:51:09.177Z,70.39
2023-03-17T16:53:37.026Z,70.48
2023-03-17T16:56:04.510Z,70.28
2023-03-17T16:58:32.706Z,70.06
2023-03-17T17:01:01.296Z,70.51
2023-03-17T17:03:29.177Z,70.54
2023-03-17T17:05:58.059Z,70.45
2023-03-17T17:08:25.628Z,70.38
2023-03-17T17:10:53.198Z,69.91
2023-03-17T17:13:20.792Z,70.37
2023-03-17T17:15:48.431Z,70.80
2023-03-17T17:18:17.054Z,71.05
2023-03-17T17:20:45.204Z,71.01
2023-03-17T17:23:14.614Z,71.12
2023-03-17T17:25:42.358Z,71.73
2023-03-17T17:29:32.479Z,71.56
2023-03-17T17:32:00.128Z,71.86
2023-03-17T17:34:27.647Z,71.90
2023-03-17T17:36:55.267Z,71.86
2023-03-17T17:39:22.741Z,72.36
2023-03-17T17:41:50.294Z,72.41
2023-03-17T17:44:17.768Z,72.62
2023-03-17T17:46:46.718Z,72.64
2023-03-17T17:49:14.238Z,73.02
2023-03-17T17:51:41.799Z,72.93
2023-03-17T17:54:10.161Z,73.32
2023-03-17T17:56:40.129Z,73.41
2023-03-17T17:59:08.104Z,73.56
2023-03-17T18:01:35.598Z,73.77
2023-03-17T18:04:04.474Z,73.88
2023-03-17T18:06:31.995Z,74.25
2023-03-17T18:09:00.050Z,74.46
2023-03-17T18:11:27.627Z,74.44
2023-03-17T18:13:55.102Z,74.44
2023-03-17T18:16:22.637Z,74.70
2023-03-17T18:18:50.206Z,74.54
2023-03-17T18:21:19.132Z,74.90
2023-03-17T18:23:48.699Z,74.81
2023-03-17T18:26:16.637Z,74.82
2023-03-17T18:28:44.202Z,75.08
2023-03-17T18:31:14.330Z,74.96
2023-03-17T18:33:41.933Z,75.21
2023-03-17T18:36:09.772Z,75.05
2023-03-17T18:38:38.810Z,75.29
2023-03-17T18:41:06.957Z,75.33
2023-03-17T18:43:34.511Z,75.28
2023-03-17T18:46:02.010Z,75.32
2023-03-17T18:48:29.467Z,75.10
2023-03-17T18:50:56.978Z,75.52
2023-03-17T18:53:24.790Z,75.51
2023-03-17T18:55:53.663Z,75.45
2023-03-17T18:58:21.115Z,75.83
2023-03-17T19:00:49.615Z,75.51
2023-03-17T19:03:17.339Z,75.74
2023-03-17T19:05:44.920Z,75.82
2023-03-17T19:08:13.879Z,75.74
2023-03-17T19:10:43.336Z,75.32
2023-03-17T19:13:12.208Z,75.62
2023-03-17T19:15:40.382Z,75.38
2023-03-17T19:18:07.897Z,74.80
2023-03-17T19:20:36.291Z,74.17
2023-03-17T19:23:04.721Z,74.33
2023-03-17T19:25:32.309Z,74.52
2023-03-17T19:28:00.146Z,74.07
2023-03-17T19:30:29.170Z,73.58
2023-03-17T19:32:56.795Z,73.72
2023-03-17T19:35:24.333Z,74.03
2023-03-17T19:37:52.264Z,73.64
2023-03-17T19:40:19.767Z,74.17
2023-03-17T19:42:47.251Z,74.51
2023-03-17T19:45:14.905Z,74.25
2023-03-17T19:47:43.716Z,73.69
2023-03-17T19:50:11.824Z,74.31
2023-03-17T19:52:39.364Z,73.97
2023-03-17T19:55:08.419Z,73.50
2023-03-17T19:57:36.492Z,74.02
2023-03-17T20:00:04.123Z,73.73
2023-03-17T20:02:31.562Z,73.94
2023-03-17T20:05:00.473Z,74.27
2023-03-17T20:07:28.003Z,74.16
2023-03-17T20:09:55.717Z,74.44
2023-03-17T20:12:23.322Z,73.78
2023-03-17T20:14:51.062Z,74.20
2023-03-17T20:17:18.705Z,73.94
2023-03-17T20:19:46.239Z,74.52
2023-03-17T20:22:15.150Z,73.83
2023-03-17T20:24:42.604Z,74.13
2023-03-17T20:27:11.239Z,74.22
2023-03-17T20:29:38.762Z,74.15
2023-03-17T20:32:06.346Z,74.45
2023-03-17T20:34:34.702Z,73.97
2023-03-17T20:37:02.850Z,74.16
2023-03-17T20:39:32.433Z,74.21
2023-03-17T20:42:01.551Z,73.72
2023-03-17T20:44:29.009Z,74.71
2023-03-17T20:46:56.646Z,74.80
2023-03-17T20:49:24.141Z,74.78
2023-03-17T20:51:51.636Z,74.54
2023-03-17T20:54:19.071Z,73.71
2023-03-17T20:56:52.359Z,73.70
2023-03-17T20:59:19.863Z,74.43
2023-03-17T21:01:47.537Z,74.49
2023-03-17T21:04:15.998Z,74.44
2023-03-17T21:06:43.612Z,74.81
2023-03-17T21:09:11.083Z,73.49
2023-03-17T21:11:38.752Z,74.56
2023-03-17T21:14:07.996Z,74.64
2023-03-17T21:16:35.901Z,74.82
2023-03-17T21:19:06.082Z,74.72
2023-03-17T21:21:34.419Z,74.72
2023-03-17T21:24:02.728Z,74.28
2023-03-17T21:26:30.295Z,74.79
2023-03-17T21:28:57.851Z,74.47
2023-03-17T21:31:27.469Z,74.61
2023-03-17T21:33:55.521Z,74.45
2023-03-17T21:36:23.021Z,73.85
2023-03-17T21:38:50.581Z,73.12
2023-03-17T21:41:24.678Z,74.68
2023-03-17T21:43:52.131Z,74.67
2023-03-17T21:46:19.601Z,74.59
2023-03-17T21:48:48.618Z,74.38
2023-03-17T21:51:16.088Z,74.32
2023-03-17T21:53:43.495Z,74.38
2023-03-17T21:56:12.552Z,74.33
2023-03-17T21:58:40.191Z,74.35
2023-03-17T22:01:07.832Z,73.72
2023-03-17T22:03:36.549Z,74.60
2023-03-17T22:06:06.280Z,74.33
2023-03-17T22:08:34.654Z,74.29
2023-03-17T22:11:02.306Z,74.33
2023-03-17T22:13:29.785Z,74.46
2023-03-17T22:15:59.358Z,73.98
2023-03-17T22:18:27.053Z,73.86
2023-03-17T22:20:54.546Z,74.28
2023-03-17T22:23:23.743Z,74.25
2023-03-17T22:25:51.333Z,73.75
2023-03-17T22:28:19.192Z,73.21
2023-03-17T22:30:46.846Z,74.46
2023-03-17T22:33:14.386Z,74.17
2023-03-17T22:35:42.067Z,73.95
2023-03-17T22:38:09.914Z,73.77
2023-03-17T22:40:38.830Z,74.05
2023-03-17T22:43:07.248Z,74.56
2023-03-17T22:45:34.737Z,74.60
2023-03-17T22:48:02.327Z,74.78
2023-03-17T22:50:30.270Z,74.08
2023-03-17T22:52:57.966Z,74.47
2023-03-17T22:55:25.482Z,74.53
2023-03-17T22:57:54.317Z,74.65
2023-03-17T23:00:22.023Z,74.47
2023-03-17T23:02:49.549Z,74.69
2023-03-17T23:05:17.206Z,74.71
2023-03-17T23:07:51.988Z,74.77
2023-03-17T23:10:22.074Z,74.40
2023-03-17T23:12:49.715Z,74.25
2023-03-17T23:15:19.687Z,74.66
2023-03-17T23:17:47.464Z,74.72
2023-03-17T23:20:15.447Z,74.32
2023-03-17T23:22:42.932Z,74.54
2023-03-17T23:25:10.906Z,74.82
2023-03-17T23:27:38.539Z,74.69
2023-03-17T23:30:06.670Z,74.99
2023-03-17T23:32:35.837Z,74.50
2023-03-17T23:35:03.601Z,74.72
2023-03-17T23:37:31.096Z,74.83
2023-03-17T23:39:58.560Z,74.64
2023-03-17T23:42:26.156Z,74.36
2023-03-17T23:44:53.700Z,74.45
2023-03-17T23:47:22.452Z,74.73
2023-03-17T23:49:51.327Z,74.44
2023-03-17T23:52:18.844Z,74.82
2023-03-17T23:54:46.523Z,74.61
2023-03-17T23:57:14.282Z,74.31
2023-03-17T23:59:41.787Z,74.82
